Peleus — V2FV2 — position and weather

sailwx.info

Track history (hours):
 
Tides and Currents Weather Stations Pressure Air Temp Water Temp Dewpoint Dewpoint Depression Visibility Wind Speed Wind Dir Waves Ship Positions

Peleus

Last reported at 2014-Oct-22 08:33 UTC. Time now 2014-Oct-23 01:39 UTC.
Position N 35°19' W 007°34'.

Length 88 m; draft 3.6 m.

Type: Ship. MMSI: 305810000.

Date/timePositionNaut miles runAvg speedWind from/ knotsBaromVisibWave heightAir tempDewpointWater temp
2014-Oct-22 08:33N 35°19' W 007°34'8 8.1
2014-Oct-22 07:33N 35°26' W 007°29'9 8.4
2014-Oct-22 06:31N 35°33' W 007°24'  
2014-Oct-18 00:06N 36°49' W 007°23'26 7.3
2014-Oct-17 20:33N 36°51' W 007°55'7 6.7
2014-Oct-17 19:32N 36°51' W 008°04'19 7.9
2014-Oct-17 17:04N 36°50' W 008°28'4 7.4
2014-Oct-17 16:33N 36°49' W 008°32'8 7.7
2014-Oct-17 15:33N 36°44' W 008°40'7 7.5
2014-Oct-17 14:33N 36°40' W 008°48'  
Track history (hours):
 
Tides and Currents Weather Stations Pressure Air Temp Water Temp Dewpoint Dewpoint Depression Visibility Wind Speed Wind Dir Waves Ship Positions

Peleus

Last reported at 2014-Oct-22 08:33 UTC. Time now 2014-Oct-23 01:39 UTC.
Position N 35°19' W 007°34'.

Length 88 m; draft 3.6 m.

Type: Ship. MMSI: 305810000.

Date/timePositionNaut miles runAvg speedWind from/ knotsBaromVisibWave heightAir tempDewpointWater temp
2014-Oct-22 08:33N 35°19' W 007°34'8 8.1
2014-Oct-22 07:33N 35°26' W 007°29'9 8.4
2014-Oct-22 06:31N 35°33' W 007°24'  
2014-Oct-18 00:06N 36°49' W 007°23'26 7.3
2014-Oct-17 20:33N 36°51' W 007°55'7 6.7
2014-Oct-17 19:32N 36°51' W 008°04'19 7.9
2014-Oct-17 17:04N 36°50' W 008°28'4 7.4
2014-Oct-17 16:33N 36°49' W 008°32'8 7.7
2014-Oct-17 15:33N 36°44' W 008°40'7 7.5
2014-Oct-17 14:33N 36°40' W 008°48'  

Dump ship's entire track history